Time;durP1;ratioP1;P1;durP2;ratioP2;P2;SDS_P1;SDS_P2;PMS_P1;PMS_P2;Temp;Humidity;BMP_temperature;BMP_pressure;BME280_temperature;BME280_humidity;BME280_pressure;Samples;Min_cycle;Max_cycle;Signal;HPM_P1;HPM_P2
2022/05/17 00:01:03;;;;;;;25.08;8.20;;;14.50;99.90;;;;;;5092143;28;20056;-57
2022/05/17 00:03:29;;;;;;;23.17;8.93;;;14.10;99.90;;;;;;5092919;28;20082;-58
2022/05/17 00:05:55;;;;;;;29.77;8.32;;;14.80;99.90;;;;;;5092101;28;20071;-58
2022/05/17 00:08:21;;;;;;;23.52;8.63;;;14.00;99.90;;;;;;5091637;28;20066;-58
2022/05/17 00:10:46;;;;;;;21.52;8.00;;;14.00;99.90;;;;;;5092427;28;20067;-59
2022/05/17 00:13:13;;;;;;;21.45;7.45;;;13.90;99.90;;;;;;5092443;28;20490;-58
2022/05/17 00:15:41;;;;;;;23.92;8.10;;;13.90;99.90;;;;;;5093134;28;20412;-58
2022/05/17 00:18:07;;;;;;;25.35;8.23;;;14.00;99.90;;;;;;5091708;28;20046;-58
2022/05/17 00:20:33;;;;;;;29.75;8.80;;;13.80;99.90;;;;;;5092325;28;20047;-59
2022/05/17 00:23:02;;;;;;;22.30;7.82;;;15.50;99.90;;;;;;5090217;28;20027;-58
2022/05/17 00:25:28;;;;;;;29.70;8.38;;;13.80;99.90;;;;;;5091716;28;20039;-58
2022/05/17 00:27:54;;;;;;;23.38;8.32;;;14.40;99.90;;;;;;5091565;28;20043;-59
2022/05/17 00:30:21;;;;;;;24.15;9.27;;;15.30;99.90;;;;;;5091174;28;20173;-59
2022/05/17 00:32:46;;;;;;;29.83;9.75;;;13.90;99.90;;;;;;5092456;28;20435;-58
2022/05/17 00:35:12;;;;;;;29.98;9.10;;;13.90;99.90;;;;;;5091396;28;20039;-59
2022/05/17 00:37:40;;;;;;;22.17;8.85;;;15.90;99.90;;;;;;5094003;28;20492;-58
2022/05/17 00:40:07;;;;;;;25.02;10.32;;;13.90;99.90;;;;;;5093344;28;20399;-58
2022/05/17 00:42:32;;;;;;;30.90;9.55;;;13.80;99.90;;;;;;5095514;28;20051;-58
2022/05/17 00:44:58;;;;;;;25.50;9.02;;;13.50;99.90;;;;;;5096497;28;20109;-58
2022/05/17 00:47:26;;;;;;;23.73;8.43;;;13.80;99.90;;;;;;5094920;28;20044;-59
2022/05/17 00:50:19;;;;;;;29.02;9.60;;;14.50;99.90;;;;;;5094189;28;21018;-58
2022/05/17 00:52:45;;;;;;;27.20;9.38;;;13.70;99.90;;;;;;5094781;28;20039;-58
2022/05/17 00:55:23;;;;;;;30.80;10.73;;;14.00;99.90;;;;;;5095421;28;20046;-58
2022/05/17 00:57:58;;;;;;;25.08;9.43;;;13.40;99.90;;;;;;5094426;28;20044;-58
2022/05/17 01:00:28;;;;;;;26.42;10.52;;;13.60;99.90;;;;;;5095070;28;20499;-58
2022/05/17 01:03:01;;;;;;;25.90;10.18;;;13.80;99.90;;;;;;5092856;28;20047;-58
2022/05/17 01:05:30;;;;;;;28.25;9.88;;;14.20;99.90;;;;;;5095128;28;20032;-59
2022/05/17 01:07:59;;;;;;;31.13;10.10;;;13.40;99.90;;;;;;5095459;28;20066;-58
2022/05/17 01:10:28;;;;;;;31.35;10.70;;;13.60;99.90;;;;;;5093153;28;20410;-58
2022/05/17 01:15:39;;;;;;;24.45;10.30;;;13.20;99.90;;;;;;5097008;28;20162;-59
2022/05/17 01:18:06;;;;;;;32.58;10.18;;;13.70;99.90;;;;;;5096354;27;20032;-59
2022/05/17 01:20:32;;;;;;;29.40;10.68;;;13.60;99.90;;;;;;5094472;28;20208;-58
2022/05/17 01:23:00;;;;;;;25.38;10.52;;;13.40;99.90;;;;;;5093789;28;20050;-59
2022/05/17 01:25:28;;;;;;;29.52;10.45;;;13.30;99.90;;;;;;5094667;28;20036;-59
2022/05/17 01:28:00;;;;;;;27.42;10.95;;;13.50;99.90;;;;;;5093611;28;20094;-59
2022/05/17 01:30:29;;;;;;;25.25;9.85;;;14.70;99.90;;;;;;5095595;28;20048;-57
2022/05/17 01:32:54;;;;;;;30.20;10.48;;;13.20;99.90;;;;;;5094893;28;20500;-58
2022/05/17 01:35:21;;;;;;;27.27;10.23;;;13.30;99.90;;;;;;5094436;28;20050;-58
2022/05/17 01:37:56;;;;;;;26.27;10.35;;;15.70;99.90;;;;;;5094882;28;20717;-59
2022/05/17 01:40:23;;;;;;;21.15;10.20;;;15.80;99.90;;;;;;5095031;28;20040;-59
2022/05/17 01:42:49;;;;;;;25.65;10.13;;;14.70;99.90;;;;;;5094918;28;20209;-58
2022/05/17 01:45:17;;;;;;;28.10;10.25;;;13.30;99.90;;;;;;5095945;28;20040;-58
2022/05/17 01:47:43;;;;;;;27.35;10.25;;;13.30;99.90;;;;;;5093873;28;20144;-59
2022/05/17 01:50:09;;;;;;;27.33;11.02;;;13.20;99.90;;;;;;5094749;28;20446;-59
2022/05/17 01:52:37;;;;;;;25.73;10.57;;;13.40;99.90;;;;;;5093471;28;20458;-57
2022/05/17 01:55:03;;;;;;;33.70;11.27;;;15.00;99.90;;;;;;5094811;28;20150;-58
2022/05/17 01:57:28;;;;;;;23.35;10.30;;;13.30;99.90;;;;;;5093165;28;20132;-58
2022/05/17 01:59:54;;;;;;;30.58;10.50;;;14.70;99.90;;;;;;5093510;28;20209;-58
2022/05/17 02:02:20;;;;;;;30.40;11.15;;;13.20;99.90;;;;;;5093127;28;20122;-58
2022/05/17 02:04:45;;;;;;;28.48;10.60;;;13.20;99.90;;;;;;5094475;28;20047;-58
2022/05/17 02:07:11;;;;;;;31.17;10.80;;;14.50;99.90;;;;;;5093162;27;20496;-59
2022/05/17 02:09:37;;;;;;;25.38;9.77;;;13.30;99.90;;;;;;5093095;28;20040;-58
2022/05/17 02:12:03;;;;;;;28.90;10.20;;;15.20;99.90;;;;;;5093908;28;20047;-58
2022/05/17 02:14:29;;;;;;;26.20;9.95;;;13.20;99.90;;;;;;5092792;28;20066;-58
2022/05/17 02:16:55;;;;;;;28.05;10.45;;;13.20;99.90;;;;;;5094117;28;20043;-58
2022/05/17 02:19:22;;;;;;;32.25;9.98;;;13.40;99.90;;;;;;5093772;28;20057;-58
2022/05/17 02:21:50;;;;;;;23.60;9.30;;;13.50;99.90;;;;;;5093516;28;20048;-59
2022/05/17 02:24:17;;;;;;;25.17;9.57;;;14.80;99.90;;;;;;5094562;28;20039;-59
2022/05/17 02:26:43;;;;;;;28.65;10.52;;;13.10;99.90;;;;;;5094534;28;20059;-59
2022/05/17 02:29:09;;;;;;;24.45;9.95;;;13.10;99.90;;;;;;5093495;28;20035;-58
2022/05/17 02:31:35;;;;;;;24.02;8.68;;;13.10;99.90;;;;;;5093215;28;20351;-58
2022/05/17 02:34:01;;;;;;;28.00;9.30;;;13.10;99.90;;;;;;5094243;28;20046;-59
2022/05/17 02:36:26;;;;;;;23.20;9.38;;;13.40;99.90;;;;;;5094309;28;20040;-58
2022/05/17 02:38:52;;;;;;;21.80;8.82;;;13.10;99.90;;;;;;5093835;28;20048;-58
2022/05/17 02:41:19;;;;;;;23.65;9.50;;;13.20;99.90;;;;;;5093355;28;20548;-58
2022/05/17 02:43:46;;;;;;;25.33;9.95;;;14.00;99.90;;;;;;5095177;28;20069;-59
2022/05/17 02:46:11;;;;;;;29.20;10.00;;;14.20;99.90;;;;;;5094844;28;20039;-57
2022/05/17 02:48:37;;;;;;;27.08;11.85;;;13.20;99.90;;;;;;5092854;28;20031;-58
2022/05/17 02:51:15;;;;;;;27.15;9.13;;;13.30;99.90;;;;;;5093657;28;20077;-58
2022/05/17 02:53:41;;;;;;;23.40;9.20;;;14.00;99.90;;;;;;5092919;28;20507;-58
2022/05/17 02:56:07;;;;;;;20.80;8.98;;;13.70;99.90;;;;;;5093383;28;20330;-57
2022/05/17 02:58:34;;;;;;;26.95;10.27;;;13.10;99.90;;;;;;5092409;28;20047;-58
2022/05/17 03:01:00;;;;;;;25.42;9.30;;;13.70;99.90;;;;;;5091557;28;20550;-58
2022/05/17 03:03:26;;;;;;;19.75;9.65;;;13.10;99.90;;;;;;5093298;28;20059;-58
2022/05/17 03:05:52;;;;;;;26.35;9.90;;;14.00;99.90;;;;;;5091773;28;20988;-57
2022/05/17 03:08:17;;;;;;;25.65;9.65;;;13.10;99.90;;;;;;5093601;28;20028;-55
2022/05/17 03:10:45;;;;;;;28.23;9.25;;;13.30;99.90;;;;;;5092312;28;20039;-57
2022/05/17 03:13:13;;;;;;;22.77;9.70;;;13.20;99.90;;;;;;5092168;28;20078;-57
2022/05/17 03:15:39;;;;;;;22.27;8.88;;;13.00;99.90;;;;;;5092273;28;20594;-56
2022/05/17 03:18:05;;;;;;;31.60;9.32;;;13.00;99.90;;;;;;5092900;28;20031;-56
2022/05/17 03:20:31;;;;;;;25.63;10.38;;;13.10;99.90;;;;;;5093351;28;20039;-56
2022/05/17 03:22:56;;;;;;;22.58;9.18;;;13.00;99.90;;;;;;5093347;28;20044;-57
2022/05/17 03:25:23;;;;;;;27.05;10.05;;;13.20;99.90;;;;;;5093015;28;20116;-56
2022/05/17 03:27:51;;;;;;;23.52;9.23;;;13.10;99.90;;;;;;5092842;28;20050;-57
2022/05/17 03:30:17;;;;;;;25.33;9.32;;;13.10;99.90;;;;;;5091619;28;20130;-58
2022/05/17 03:32:43;;;;;;;32.38;9.82;;;13.00;99.90;;;;;;5092513;28;20077;-58
2022/05/17 03:35:09;;;;;;;26.25;9.70;;;13.10;99.90;;;;;;5091520;28;20043;-58
2022/05/17 03:37:36;;;;;;;18.33;8.98;;;13.30;99.90;;;;;;5093428;28;20078;-58
2022/05/17 03:40:04;;;;;;;24.58;9.60;;;14.60;99.90;;;;;;5093490;28;20527;-59
2022/05/17 03:42:31;;;;;;;22.45;9.52;;;13.10;99.90;;;;;;5091390;28;20194;-59
2022/05/17 03:44:57;;;;;;;27.25;9.30;;;15.00;99.90;;;;;;5093353;28;20027;-59
2022/05/17 03:47:23;;;;;;;27.10;9.90;;;12.90;99.90;;;;;;5093565;28;20097;-59
2022/05/17 03:49:48;;;;;;;21.35;9.57;;;13.10;99.90;;;;;;5091770;28;20032;-59
2022/05/17 03:52:14;;;;;;;26.65;9.40;;;14.00;99.90;;;;;;5092794;28;20044;-59
2022/05/17 03:54:41;;;;;;;22.40;9.65;;;13.20;99.90;;;;;;5093307;28;20039;-59
2022/05/17 03:57:07;;;;;;;24.10;8.93;;;13.10;99.90;;;;;;5093170;28;20122;-59
2022/05/17 03:59:33;;;;;;;24.92;10.27;;;13.10;99.90;;;;;;5093282;28;20052;-59
2022/05/17 04:01:59;;;;;;;23.65;8.75;;;13.00;99.90;;;;;;5092498;28;20119;-59
2022/05/17 04:04:24;;;;;;;20.38;8.65;;;14.60;99.90;;;;;;5092908;28;20621;-59
2022/05/17 04:06:50;;;;;;;22.83;8.65;;;13.60;99.90;;;;;;5093684;28;20453;-59
2022/05/17 04:09:16;;;;;;;19.05;8.65;;;13.80;99.90;;;;;;5091476;28;20054;-59
2022/05/17 04:11:42;;;;;;;23.83;9.38;;;13.20;99.90;;;;;;5092435;28;20071;-59
2022/05/17 04:14:08;;;;;;;21.27;8.50;;;13.40;99.90;;;;;;5096650;28;20128;-60
2022/05/17 04:16:36;;;;;;;24.25;8.73;;;13.10;99.90;;;;;;5097674;28;20042;-60
2022/05/17 04:19:02;;;;;;;26.42;9.10;;;13.80;99.90;;;;;;5095540;28;20035;-60
2022/05/17 04:21:33;;;;;;;20.77;8.13;;;13.60;99.90;;;;;;5096466;28;20171;-60
2022/05/17 04:23:59;;;;;;;19.08;8.13;;;13.50;99.90;;;;;;5095926;28;20360;-60
2022/05/17 04:26:25;;;;;;;21.88;8.82;;;13.80;99.90;;;;;;5095942;28;20050;-60
2022/05/17 04:28:51;;;;;;;15.55;7.47;;;15.30;99.90;;;;;;5096130;28;20036;-60
2022/05/17 04:31:17;;;;;;;18.45;7.25;;;13.70;99.90;;;;;;5095836;28;20040;-59
2022/05/17 04:33:43;;;;;;;20.80;7.85;;;13.90;99.90;;;;;;5094313;28;20047;-59
2022/05/17 04:36:10;;;;;;;18.50;7.72;;;13.90;99.90;;;;;;5095147;28;20047;-60
2022/05/17 04:38:36;;;;;;;19.98;8.32;;;14.50;99.90;;;;;;5094705;28;20043;-59
2022/05/17 04:41:04;;;;;;;20.35;7.47;;;14.10;99.90;;;;;;5094694;27;20039;-59
2022/05/17 04:43:30;;;;;;;21.17;7.72;;;15.30;99.90;;;;;;5092700;28;20070;-59
2022/05/17 04:45:57;;;;;;;19.98;7.18;;;14.30;99.90;;;;;;5097319;28;20548;-60
2022/05/17 04:48:26;;;;;;;19.10;7.40;;;14.10;99.90;;;;;;5095574;28;20797;-59
2022/05/17 04:50:52;;;;;;;16.65;8.50;;;14.40;99.90;;;;;;5095654;28;20038;-59
2022/05/17 04:53:18;;;;;;;25.10;7.95;;;14.40;99.90;;;;;;5094147;28;20040;-59
2022/05/17 04:55:46;;;;;;;21.70;7.72;;;14.80;99.90;;;;;;5095975;28;20054;-59
2022/05/17 04:58:12;;;;;;;22.23;7.63;;;14.20;99.90;;;;;;5095525;28;20035;-59
2022/05/17 05:00:38;;;;;;;20.92;7.63;;;14.30;99.90;;;;;;5095345;28;20062;-63
2022/05/17 05:03:04;;;;;;;21.88;7.20;;;14.80;99.90;;;;;;5093440;28;20134;-59
2022/05/17 05:05:30;;;;;;;22.85;7.53;;;14.30;99.90;;;;;;5094972;28;20360;-59
2022/05/17 05:07:57;;;;;;;20.33;6.80;;;14.30;99.90;;;;;;5095830;28;20039;-60
2022/05/17 05:10:25;;;;;;;22.77;7.60;;;14.40;99.90;;;;;;5091865;28;20047;-59
2022/05/17 05:12:51;;;;;;;18.25;7.25;;;14.40;99.90;;;;;;5093901;28;20040;-60
2022/05/17 05:15:17;;;;;;;23.17;7.50;;;14.40;99.90;;;;;;5093756;28;20803;-59
2022/05/17 05:17:43;;;;;;;18.92;7.32;;;14.50;99.90;;;;;;5096051;28;20043;-60
2022/05/17 05:20:13;;;;;;;18.67;6.80;;;14.70;99.90;;;;;;5092893;28;20142;-59
2022/05/17 05:22:39;;;;;;;22.92;7.22;;;14.50;99.90;;;;;;5092061;28;20035;-59
2022/05/17 05:25:05;;;;;;;17.20;6.32;;;14.50;99.90;;;;;;5092769;28;20286;-60
2022/05/17 05:27:36;;;;;;;19.52;6.80;;;14.50;99.90;;;;;;5093295;28;20043;-59
2022/05/17 05:30:04;;;;;;;19.58;6.18;;;16.00;99.90;;;;;;5094130;28;20048;-60
2022/05/17 05:32:30;;;;;;;19.17;6.95;;;14.40;99.90;;;;;;5093517;28;20051;-59
2022/05/17 05:34:58;;;;;;;26.85;6.85;;;15.20;99.90;;;;;;5091807;28;20047;-59
2022/05/17 05:37:23;;;;;;;16.90;5.55;;;15.20;99.90;;;;;;5091098;28;20074;-58
2022/05/17 05:39:49;;;;;;;16.85;6.07;;;17.50;99.90;;;;;;5090640;28;20138;-59
2022/05/17 05:42:15;;;;;;;22.02;6.30;;;16.40;99.90;;;;;;5094112;28;20630;-59
2022/05/17 05:44:40;;;;;;;18.40;5.72;;;16.00;99.90;;;;;;5091151;28;20354;-59
2022/05/17 05:47:06;;;;;;;16.52;5.50;;;16.00;99.90;;;;;;5075541;28;20035;-60
2022/05/17 05:49:32;;;;;;;22.35;5.75;;;16.00;99.90;;;;;;5094185;28;20043;-59
2022/05/17 05:51:58;;;;;;;21.35;5.38;;;16.40;99.90;;;;;;5092519;28;20042;-59
2022/05/17 05:54:23;;;;;;;21.70;5.82;;;16.50;99.90;;;;;;5092339;28;20168;-59
2022/05/17 05:56:49;;;;;;;18.98;5.32;;;17.40;99.90;;;;;;5094333;28;20492;-59
2022/05/17 05:59:15;;;;;;;15.82;5.00;;;16.60;99.90;;;;;;5091794;28;20638;-59
2022/05/17 06:01:41;;;;;;;17.00;5.13;;;16.70;99.90;;;;;;5094265;27;20114;-59
2022/05/17 06:04:09;;;;;;;17.23;4.72;;;18.80;99.90;;;;;;5094733;28;20291;-59
2022/05/17 06:06:35;;;;;;;22.13;5.45;;;16.80;99.90;;;;;;5093986;28;20057;-59
2022/05/17 06:09:01;;;;;;;16.88;4.63;;;17.10;99.90;;;;;;5095366;28;20040;-59
2022/05/17 06:11:27;;;;;;;14.20;4.55;;;17.00;99.90;;;;;;5093932;28;20040;-59
2022/05/17 06:13:53;;;;;;;13.82;4.10;;;17.30;99.90;;;;;;5093611;28;20066;-59
2022/05/17 06:16:19;;;;;;;17.08;4.55;;;19.00;99.90;;;;;;5093312;28;20139;-59
2022/05/17 06:18:44;;;;;;;14.65;4.25;;;17.40;99.90;;;;;;5093067;28;20215;-59
2022/05/17 06:21:10;;;;;;;19.75;4.55;;;17.40;99.90;;;;;;5091030;28;20039;-59
2022/05/17 06:23:36;;;;;;;16.27;4.15;;;17.60;99.90;;;;;;5093340;28;20549;-59
2022/05/17 06:26:02;;;;;;;18.42;5.03;;;17.70;99.90;;;;;;5093084;28;20063;-59
2022/05/17 06:28:29;;;;;;;13.70;4.10;;;19.10;99.90;;;;;;5092689;28;20541;-59
2022/05/17 06:30:54;;;;;;;18.58;4.32;;;17.70;99.90;;;;;;5092717;28;20100;-59
2022/05/17 06:33:22;;;;;;;22.73;4.60;;;20.00;99.90;;;;;;5092749;28;20047;-59
2022/05/17 06:35:48;;;;;;;15.02;3.88;;;17.90;99.90;;;;;;5093193;28;20508;-59
2022/05/17 06:38:15;;;;;;;11.85;3.70;;;18.20;99.90;;;;;;5092903;28;20513;-59
2022/05/17 06:40:41;;;;;;;17.98;3.97;;;18.10;99.90;;;;;;5093504;28;20774;-59
2022/05/17 06:43:07;;;;;;;13.90;4.35;;;18.10;99.90;;;;;;5092853;28;20035;-59
2022/05/17 06:45:33;;;;;;;18.20;3.80;;;18.30;99.90;;;;;;5092987;28;20115;-59
2022/05/17 06:48:01;;;;;;;17.25;4.80;;;18.50;99.90;;;;;;5092050;28;20036;-60
2022/05/17 06:50:28;;;;;;;16.02;4.75;;;20.00;99.90;;;;;;5090951;28;20069;-59
2022/05/17 06:52:54;;;;;;;18.15;4.47;;;20.20;99.90;;;;;;5093172;28;20035;-59
2022/05/17 06:55:23;;;;;;;16.05;4.60;;;19.70;99.90;;;;;;5094321;28;20043;-59
2022/05/17 06:57:50;;;;;;;14.55;3.85;;;23.20;99.90;;;;;;5092692;28;20400;-59
2022/05/17 07:00:17;;;;;;;14.57;3.72;;;21.80;99.90;;;;;;5091510;28;20082;-60
2022/05/17 07:02:43;;;;;;;17.13;4.75;;;22.90;99.90;;;;;;5093288;28;20154;-60
2022/05/17 07:05:09;;;;;;;14.82;4.35;;;23.80;99.90;;;;;;5092657;28;20571;-60
2022/05/17 07:07:36;;;;;;;19.50;4.40;;;24.30;99.90;;;;;;5092646;28;20720;-60
2022/05/17 07:15:31;;;;;;;14.23;4.15;;;25.00;99.90;;;;;;5092078;28;20046;-60
2022/05/17 07:18:00;;;;;;;14.07;3.75;;;25.10;99.90;;;;;;5093100;28;20051;-60
2022/05/17 07:20:27;;;;;;;13.73;4.50;;;25.40;99.90;;;;;;5093367;28;20050;-60
2022/05/17 07:22:52;;;;;;;12.50;3.92;;;25.90;99.90;;;;;;5093040;28;20039;-60
2022/05/17 07:25:18;;;;;;;13.63;3.35;;;25.60;99.90;;;;;;5092418;28;20819;-60
2022/05/17 07:27:45;;;;;;;21.98;4.18;;;26.00;99.90;;;;;;5092014;28;20121;-60
2022/05/17 07:30:11;;;;;;;11.25;3.58;;;26.20;99.90;;;;;;5092319;28;20581;-61
2022/05/17 07:32:40;;;;;;;12.95;3.40;;;26.70;99.90;;;;;;5092570;28;20044;-60
2022/05/17 07:35:07;;;;;;;13.00;3.72;;;27.10;99.90;;;;;;5092946;28;20035;-60
2022/05/17 07:37:35;;;;;;;10.98;3.22;;;27.20;99.90;;;;;;5093426;28;20106;-60
2022/05/17 07:40:02;;;;;;;12.85;4.05;;;27.30;99.90;;;;;;5090400;28;20135;-61
2022/05/17 07:42:28;;;;;;;13.85;3.15;;;27.10;99.90;;;;;;5094161;28;20047;-60
2022/05/17 07:44:54;;;;;;;13.68;3.70;;;26.60;99.90;;;;;;5092395;28;20385;-60
2022/05/17 07:47:20;;;;;;;15.75;4.53;;;26.70;99.90;;;;;;5098535;28;20036;-61
2022/05/17 07:49:45;;;;;;;15.60;4.40;;;27.00;99.90;;;;;;5096337;28;20926;-60
2022/05/17 07:52:12;;;;;;;16.92;7.95;;;27.10;99.90;;;;;;5095647;28;20543;-60
2022/05/17 07:54:38;;;;;;;542.83;226.27;;;26.90;99.90;;;;;;5095670;27;20134;-60
2022/05/17 07:57:07;;;;;;;1127.28;586.67;;;26.50;99.90;;;;;;5096506;28;20042;-60
2022/05/17 07:59:33;;;;;;;1183.60;863.28;;;26.40;99.90;;;;;;5095871;28;20088;-60
2022/05/17 08:02:01;;;;;;;1125.40;777.95;;;25.90;99.90;;;;;;5097382;28;20055;-61
2022/05/17 08:04:30;;;;;;;1488.85;740.53;;;25.90;99.90;;;;;;5096920;28;20051;-61
2022/05/17 08:06:56;;;;;;;1067.30;576.30;;;25.70;99.90;;;;;;5095944;28;20047;-60
2022/05/17 08:09:24;;;;;;;1312.70;780.55;;;25.60;99.90;;;;;;5095497;28;20032;-60
2022/05/17 08:11:53;;;;;;;1508.03;828.45;;;25.30;99.90;;;;;;5094798;28;20044;-60
2022/05/17 08:14:19;;;;;;;1722.68;860.25;;;25.20;99.90;;;;;;5096838;28;20036;-60
2022/05/17 08:16:45;;;;;;;1485.55;811.90;;;24.90;99.90;;;;;;5096426;28;20153;-60
2022/05/17 08:19:11;;;;;;;892.72;492.10;;;24.50;99.90;;;;;;5097242;28;20292;-60
2022/05/17 08:21:38;;;;;;;961.88;430.92;;;24.30;99.90;;;;;;5095271;28;20054;-60
2022/05/17 08:24:04;;;;;;;703.08;393.60;;;24.10;99.90;;;;;;5094985;28;20039;-60
2022/05/17 08:29:14;;;;;;;20.75;9.02;;;24.80;99.90;;;;;;5095242;28;20050;-60
2022/05/17 08:31:40;;;;;;;74.68;38.25;;;25.20;99.90;;;;;;5093078;28;20062;-60
2022/05/17 08:34:10;;;;;;;424.40;196.27;;;25.50;99.90;;;;;;5094947;28;20040;-60
2022/05/17 08:36:36;;;;;;;204.40;85.22;;;25.80;99.90;;;;;;5096827;28;20043;-60
2022/05/17 08:39:02;;;;;;;297.42;124.93;;;25.80;99.90;;;;;;5097095;28;20032;-60
2022/05/17 08:41:57;;;;;;;683.35;285.52;;;25.10;99.90;;;;;;5095103;28;20092;-60
2022/05/17 08:44:48;;;;;;;224.95;108.38;;;24.40;99.90;;;;;;5015996;28;20518;-60
2022/05/17 08:47:39;;;;;;;79.30;45.10;;;23.70;99.90;;;;;;5033795;28;20096;-60
2022/05/17 08:50:19;;;;;;;116.50;47.67;;;23.20;99.90;;;;;;5031710;28;20080;-60
2022/05/17 08:52:46;;;;;;;17.77;9.50;;;22.60;99.90;;;;;;5032933;28;20037;-60
2022/05/17 08:55:32;;;;;;;10.52;3.30;;;22.40;99.90;;;;;;5032168;28;20134;-60
2022/05/17 08:58:02;;;;;;;12.93;3.60;;;22.60;99.90;;;;;;5032975;28;20061;-60
2022/05/17 09:00:45;;;;;;;10.98;2.97;;;22.60;99.90;;;;;;5015855;28;20077;-61
2022/05/17 09:03:30;;;;;;;13.25;3.25;;;23.20;99.90;;;;;;5033712;28;20052;-61
2022/05/17 09:06:17;;;;;;;12.23;3.08;;;23.80;99.90;;;;;;5033331;28;20045;-60
2022/05/17 09:08:45;;;;;;;13.88;3.95;;;24.20;99.90;;;;;;5032644;28;20049;-61
2022/05/17 09:11:48;;;;;;;9.10;3.28;;;24.50;99.90;;;;;;5032125;28;20048;-60
2022/05/17 09:14:24;;;;;;;11.10;3.00;;;24.90;99.90;;;;;;5031848;28;20053;-60
2022/05/17 09:17:00;;;;;;;10.10;2.92;;;25.00;99.90;;;;;;5029792;28;20049;-60
2022/05/17 09:19:27;;;;;;;12.07;3.55;;;25.10;99.90;;;;;;5033355;28;20088;-60
2022/05/17 09:22:00;;;;;;;10.88;2.67;;;24.90;99.90;;;;;;5075057;28;20586;-60
2022/05/17 09:24:32;;;;;;;9.98;3.00;;;24.60;99.90;;;;;;5095038;28;20040;-60
2022/05/17 09:27:10;;;;;;;12.27;2.90;;;24.10;99.90;;;;;;5094208;28;20040;-61
2022/05/17 09:29:44;;;;;;;12.93;3.03;;;26.50;99.90;;;;;;5094958;28;20035;-60
2022/05/17 09:32:12;;;;;;;10.07;2.90;;;23.90;99.90;;;;;;5094815;28;21258;-60
2022/05/17 09:34:43;;;;;;;20.83;3.78;;;23.80;99.90;;;;;;5094732;28;20051;-60
2022/05/17 09:37:13;;;;;;;16.15;3.63;;;23.90;99.90;;;;;;5094951;28;20039;-61
2022/05/17 09:39:39;;;;;;;12.02;2.50;;;23.90;99.90;;;;;;5094331;28;20667;-61
2022/05/17 09:42:08;;;;;;;10.32;3.13;;;23.80;99.90;;;;;;5093441;28;20114;-61
2022/05/17 09:44:41;;;;;;;8.75;2.70;;;24.00;99.90;;;;;;5093719;28;20067;-61
2022/05/17 09:47:22;;;;;;;11.13;3.10;;;24.20;99.90;;;;;;5095165;28;20043;-60
2022/05/17 09:52:38;;;;;;;12.88;3.08;;;24.50;99.90;;;;;;5094799;28;20092;-61
2022/05/17 09:55:10;;;;;;;14.47;2.90;;;24.10;99.90;;;;;;5095740;28;20050;-61
2022/05/17 09:57:36;;;;;;;11.82;2.75;;;24.50;99.90;;;;;;5094369;28;20036;-61
2022/05/17 10:00:12;;;;;;;9.25;2.17;;;24.50;99.90;;;;;;5094059;28;20035;-61
2022/05/17 10:02:55;;;;;;;13.68;3.05;;;24.60;99.90;;;;;;5095354;28;20047;-60
2022/05/17 10:05:28;;;;;;;9.60;2.15;;;24.70;99.90;;;;;;5093749;28;20083;-61
2022/05/17 10:08:25;;;;;;;9.85;2.28;;;24.60;99.90;;;;;;5094642;28;20095;-60
2022/05/17 10:11:02;;;;;;;10.27;2.67;;;24.70;99.90;;;;;;5031937;28;20045;-61
2022/05/17 10:13:59;;;;;;;9.20;2.70;;;24.90;99.90;;;;;;5031535;28;20225;-61
2022/05/17 10:16:52;;;;;;;12.07;3.10;;;25.00;99.90;;;;;;4972211;28;20054;-61
2022/05/17 10:19:43;;;;;;;14.68;3.22;;;25.00;99.90;;;;;;4973056;28;20271;-61
2022/05/17 10:22:33;;;;;;;8.98;2.28;;;24.60;99.90;;;;;;4939648;28;20054;-61
2022/05/17 10:25:02;;;;;;;10.98;2.80;;;24.90;99.90;;;;;;4955586;28;20054;-61
2022/05/17 10:27:33;;;;;;;11.25;2.72;;;25.20;99.90;;;;;;4970562;28;20308;-61
2022/05/17 10:30:15;;;;;;;10.52;2.40;;;25.00;99.90;;;;;;5069525;27;20485;-58
2022/05/17 10:32:57;;;;;;;11.05;2.47;;;25.10;99.90;;;;;;5069613;28;20048;-59
2022/05/17 10:35:42;;;;;;;14.13;2.92;;;25.20;99.90;;;;;;5067815;28;20032;-58
2022/05/17 10:38:28;;;;;;;11.18;2.47;;;25.30;99.90;;;;;;5070865;28;20449;-58
2022/05/17 10:40:56;;;;;;;9.52;2.28;;;25.50;99.90;;;;;;5068794;28;20043;-60
2022/05/17 10:43:31;;;;;;;11.05;2.65;;;25.30;99.90;;;;;;5069240;28;20130;-59
2022/05/17 10:46:33;;;;;;;10.85;2.30;;;25.60;99.90;;;;;;5069300;28;20165;-59
2022/05/17 10:48:58;;;;;;;7.63;2.03;;;25.80;99.90;;;;;;5100689;27;20515;-59
2022/05/17 10:52:02;;;;;;;7.35;1.70;;;25.80;99.90;;;;;;5066780;28;20037;-58
2022/05/17 10:55:11;;;;;;;8.70;1.80;;;25.70;97.60;;;;;;5065250;28;20130;-58
2022/05/17 10:58:03;;;;;;;8.55;2.30;;;25.70;99.70;;;;;;5065352;28;20048;-59
2022/05/17 11:00:37;;;;;;;8.77;1.67;;;25.80;97.70;;;;;;5004986;28;20072;-59
2022/05/17 11:03:35;;;;;;;8.82;2.17;;;25.40;97.10;;;;;;5004581;28;20569;-59
2022/05/17 11:06:39;;;;;;;11.35;2.17;;;25.60;97.20;;;;;;5005866;28;20137;-59
2022/05/17 11:09:19;;;;;;;9.07;2.00;;;26.00;98.90;;;;;;5003718;28;20549;-59
2022/05/17 11:11:57;;;;;;;7.10;1.70;;;26.00;98.90;;;;;;5004819;28;20069;-59
2022/05/17 11:14:42;;;;;;;10.50;2.47;;;25.90;97.30;;;;;;5004157;28;20073;-59
2022/05/17 11:17:15;;;;;;;11.13;2.38;;;26.10;98.20;;;;;;5005560;28;20081;-58
2022/05/17 11:20:04;;;;;;;8.70;2.50;;;25.90;97.30;;;;;;5004999;28;20049;-59
2022/05/17 11:22:58;;;;;;;10.55;2.20;;;26.00;96.30;;;;;;5005206;28;20046;-58
2022/05/17 11:26:00;;;;;;;15.05;1.95;;;25.90;96.80;;;;;;5013558;28;20136;-58
2022/05/17 11:29:11;;;;;;;9.70;1.77;;;26.00;94.30;;;;;;5022197;28;20080;-58
2022/05/17 11:31:57;;;;;;;10.50;1.67;;;26.30;95.70;;;;;;5024116;28;20053;-60
2022/05/17 11:34:35;;;;;;;8.43;1.63;;;26.30;95.20;;;;;;5023032;28;20064;-58
2022/05/17 11:37:28;;;;;;;9.00;1.65;;;26.40;94.00;;;;;;5039549;28;20049;-58
2022/05/17 11:39:56;;;;;;;6.53;1.92;;;26.20;95.10;;;;;;5064426;28;20147;-58
2022/05/17 11:42:30;;;;;;;6.35;1.80;;;26.00;93.50;;;;;;5056321;28;20563;-59
2022/05/17 11:45:15;;;;;;;10.48;2.65;;;26.30;93.90;;;;;;5055757;28;20135;-59
2022/05/17 11:47:41;;;;;;;6.40;1.52;;;26.30;94.00;;;;;;5055391;28;20045;-59
2022/05/17 11:50:16;;;;;;;7.88;1.90;;;26.50;94.10;;;;;;5054112;28;20048;-58
2022/05/17 11:52:47;;;;;;;7.00;2.08;;;26.40;93.40;;;;;;5055579;28;20882;-59
2022/05/17 11:55:18;;;;;;;8.52;2.00;;;26.40;92.70;;;;;;5055787;28;20790;-58
2022/05/17 11:57:46;;;;;;;9.43;1.60;;;26.20;92.70;;;;;;5055600;28;20071;-59
2022/05/17 12:00:24;;;;;;;7.25;2.08;;;26.40;92.20;;;;;;5054395;28;20123;-58
2022/05/17 12:02:53;;;;;;;11.45;2.10;;;26.40;92.50;;;;;;5054174;28;20055;-58
2022/05/17 12:05:37;;;;;;;6.57;1.58;;;26.30;92.80;;;;;;5053900;28;20044;-58
2022/05/17 12:08:32;;;;;;;7.47;1.63;;;26.40;94.10;;;;;;5053872;28;20048;-58
2022/05/17 12:11:10;;;;;;;7.93;2.25;;;26.50;92.30;;;;;;5052242;28;21666;-57
2022/05/17 12:13:48;;;;;;;6.68;1.98;;;26.60;92.80;;;;;;5051860;28;20396;-58
2022/05/17 12:16:19;;;;;;;8.00;2.15;;;26.70;91.30;;;;;;5054604;28;20129;-58
2022/05/17 12:18:51;;;;;;;8.93;1.90;;;26.20;91.60;;;;;;5056293;28;20052;-59
2022/05/17 12:21:49;;;;;;;7.60;1.60;;;26.30;90.70;;;;;;5054057;28;20048;-59
2022/05/17 12:24:37;;;;;;;7.68;1.58;;;26.40;91.90;;;;;;5050387;28;20074;-59
2022/05/17 12:27:17;;;;;;;6.68;1.50;;;26.40;91.00;;;;;;5050327;28;20044;-60
2022/05/17 12:32:36;;;;;;;6.93;1.60;;;26.20;91.40;;;;;;5051161;28;20045;-59
2022/05/17 12:35:05;;;;;;;7.53;1.45;;;26.30;92.10;;;;;;5051823;28;20573;-59
2022/05/17 12:37:31;;;;;;;8.07;1.70;;;26.40;92.70;;;;;;5050024;28;20072;-59
2022/05/17 12:45:37;;;;;;;7.80;1.95;;;26.40;92.40;;;;;;5049652;28;20052;-59
2022/05/17 12:48:31;;;;;;;11.65;2.38;;;26.30;91.70;;;;;;5050506;28;20081;-59
2022/05/17 12:51:01;;;;;;;8.52;1.85;;;26.20;91.60;;;;;;4990908;28;20054;-59
2022/05/17 12:53:38;;;;;;;10.70;2.10;;;25.50;93.60;;;;;;4989417;28;20061;-59
2022/05/17 12:56:24;;;;;;;8.93;1.90;;;25.30;92.70;;;;;;4991177;28;20054;-58
2022/05/17 12:58:57;;;;;;;8.70;2.08;;;25.20;93.10;;;;;;4945678;28;20702;-59
2022/05/17 13:01:39;;;;;;;7.30;1.67;;;25.20;92.20;;;;;;4937750;28;21263;-59
2022/05/17 13:04:14;;;;;;;7.07;1.75;;;25.70;92.50;;;;;;4915257;29;20800;-58
2022/05/17 13:06:48;;;;;;;10.40;1.77;;;25.80;93.30;;;;;;4916565;29;20122;-59
2022/05/17 13:09:26;;;;;;;12.38;2.40;;;24.90;91.90;;;;;;4933121;29;20512;-59
2022/05/17 13:11:53;;;;;;;8.80;2.00;;;25.10;93.40;;;;;;4931288;29;20142;-59
2022/05/17 13:14:25;;;;;;;11.52;1.85;;;25.30;93.90;;;;;;4931408;29;20055;-59
2022/05/17 13:16:52;;;;;;;9.65;2.03;;;25.30;92.90;;;;;;4931841;29;20639;-59